Nearby METAR Reports

 

KISP - Islip, New York, USA
Distance from station: SW 4mi, 6km
Updated: Thu, 08/22/2019 10:56 am EDT
Mostly cloudy
Mostly cloudy
 Wind from W
Wind: W 8 mph , 13 km/h
Temperature: 84°F , 29°C
Heat Index: 89°F , 32°C
Dew Point: 72°F , 22°C
Humidity: 66%
Barometer: 29.87 inHg , 1011.5 hPa
Clouds: Mostly cloudy
Visibility: 10 miles , 16 km
Cloud details: Few Clouds 1500 ft
Mostly cloudy 25000 ft
2019/08/22 14:56 KISP 221456Z 27007KT 10SM FEW015 BKN250 29/22 A2987 RMK AO2 SLP114 T02940222 50005
KHWV - Shirley, New York, USA
Distance from station: E 10mi, 16km
Updated: Thu, 08/22/2019 10:56 am EDT
Few Clouds
Few Clouds
 Wind from varies
Wind: varies 5 mph , 7 km/h
Temperature: 84°F , 29°C
Heat Index: 89°F , 32°C
Dew Point: 72°F , 22°C
Humidity: 66%
Barometer: 29.88 inHg , 1011.9 hPa
Clouds: Few Clouds
Visibility: 10 miles , 16 km
Cloud details: Few Clouds 2800 ft
2019/08/22 14:56 KHWV 221456Z AUTO VRB04KT 10SM FEW028 29/22 A2988 RMK AO2 SLP115 T02940217 51007
 
KFRG - Farmingdale, New York, USA
Distance from station: WSW 20mi, 33km
Updated: Thu, 08/22/2019 10:53 am EDT
Clear
Clear
 Wind from varies
Wind: varies 3 mph , 6 km/h
Temperature: 84°F , 29°C
Heat Index: 88°F , 31°C
Dew Point: 70°F , 21°C
Humidity: 62%
Barometer: 29.88 inHg , 1011.9 hPa
Clouds: Clear
Visibility: 10 miles , 16 km
2019/08/22 14:53 KFRG 221453Z VRB03KT 10SM CLR 29/21 A2988 RMK AO2 SLP119 T02890206 51005
KBDR - Bridgeport, Connecticut, USA
Distance from station: N 23mi, 37km
Updated: Thu, 08/22/2019 10:52 am EDT
Clear
Clear
 Wind from SW
Wind: SW 12 mph , 19 km/h
Temperature: 84°F , 29°C
Heat Index: 89°F , 32°C
Dew Point: 72°F , 22°C
Humidity: 66%
Barometer: 29.86 inHg , 1011.2 hPa
Clouds: Clear
Visibility: 10 miles , 16 km
2019/08/22 14:52 KBDR 221452Z 23010KT 10SM CLR 29/22 A2986 RMK AO2 SLP112 T02890222 53002
 
KFOK - Westhampton Beac, New York, USA
Distance from station: E 23mi, 37km
Updated: Thu, 08/22/2019 10:53 am EDT
Clear
Clear
 Wind from SSE
Wind: SSE 9 mph , 15 km/h
Temperature: 84°F , 29°C
Heat Index: 92°F , 33°C
Dew Point: 75°F , 24°C
Humidity: 74%
Barometer: 29.89 inHg , 1012.2 hPa
Clouds: Clear
Visibility: 10 miles , 16 km
2019/08/22 14:53 KFOK 221453Z 15008KT 10SM CLR 29/24 A2989 RMK AO2 SLP122 T02890239 51008
KHVN - New Haven/Tweed, Connecticut, USA
Distance from station: NNE 31mi, 50km
Updated: Thu, 08/22/2019 10:53 am EDT
Partly cloudy
Partly cloudy
 Wind from SW
Wind: SW 5 mph , 7 km/h
Temperature: 84°F , 29°C
Heat Index: 92°F , 33°C
Dew Point: 75°F , 24°C
Humidity: 74%
Barometer: 29.86 inHg , 1011.2 hPa
Clouds: Partly cloudy
Visibility: 10 miles , 16 km
Cloud details: Partly cloudy 2000 ft
2019/08/22 14:53 KHVN 221453Z 22004KT 10SM SCT020 29/24 A2986 RMK AO2 SLP112 T02890244 50003
 
KHPN - White Plains, New York, USA
Distance from station: WNW 37mi, 60km
Updated: Thu, 08/22/2019 10:56 am EDT
Few Clouds
Few Clouds
 Wind from WNW
Wind: WNW 9 mph , 15 km/h
Temperature: 82°F , 28°C
Heat Index: 85°F , 29°C
Dew Point: 68°F , 20°C
Humidity: 62%
Barometer: 29.89 inHg , 1012.2 hPa
Clouds: Few Clouds
Visibility: 10 miles , 16 km
Cloud details: Few Clouds 3000 ft
2019/08/22 14:56 KHPN 221456Z 29008KT 10SM FEW030 28/20 A2989 RMK AO2 SLP114 T02780200 51005 $
KJFK - Nyc/Jfk Arpt, New York, USA
Distance from station: WSW 40mi, 64km
Updated: Thu, 08/22/2019 10:51 am EDT
Mostly cloudy
Mostly cloudy
 Wind from WSW
Wind: WSW 10 mph , 17 km/h
Temperature: 82°F , 28°C
Heat Index: 86°F , 30°C
Dew Point: 72°F , 22°C
Humidity: 70%
Barometer: 29.88 inHg , 1011.9 hPa
Clouds: Mostly cloudy
Visibility: 10 miles , 16 km
Cloud details: Few Clouds 4000 ft
Mostly cloudy 35000 ft
2019/08/22 14:51 KJFK 221451Z 24009KT 10SM FEW040 BKN350 28/22 A2988 RMK AO2 SLP119 T02830217 50002 $
 
KDXR - Danbury, Connecticut, USA
Distance from station: NNW 42mi, 68km
Updated: Thu, 08/22/2019 10:53 am EDT
Clear
Clear
 Wind from WNW
Wind: WNW 8 mph , 13 km/h
Temperature: 82°F , 28°C
Heat Index: 84°F , 29°C
Dew Point: 66°F , 19°C
Humidity: 58%
Barometer: 29.89 inHg , 1012.2 hPa
Clouds: Clear
Visibility: 10 miles , 16 km
2019/08/22 14:53 KDXR 221453Z 30007KT 10SM CLR 28/19 A2989 RMK AO2 SLP119 T02780194 52003
KHTO - East Hampton, New York, USA
Distance from station: E 43mi, 69km
Updated: Thu, 08/22/2019 11:10 am EDT
Clear
Clear
 Wind from W
Wind: W 6 mph , 9 km/h
Barometer: 29.87 inHg , 1011.5 hPa
Clouds: Clear
Visibility: 10 miles , 16 km
2019/08/22 15:10 KHTO 221510Z AUTO 28005KT 10SM CLR A2987 RMK AO2
 
KOXC - Oxford/Waterbury, Connecticut, USA
Distance from station: N 43mi, 70km
Updated: Thu, 08/22/2019 10:51 am EDT
Partly cloudy
Partly cloudy
 Wind from NW
Wind: NW 6 mph , 9 km/h
Temperature: 79°F , 26°C
Dew Point: 72°F , 22°C
Humidity: 79%
Barometer: 29.91 inHg , 1012.9 hPa
Clouds: Partly cloudy
Visibility: 10 miles , 16 km
Cloud details: Partly cloudy 1800 ft
2019/08/22 14:51 KOXC 221451Z 31005KT 10SM SCT018 26/22 A2991 RMK AO2 SLP134 T02610217 53005
KLGA - Nyc/La Guardia, New York, USA
Distance from station: W 44mi, 70km
Updated: Thu, 08/22/2019 10:51 am EDT
Mostly cloudy
Mostly cloudy
 Wind from NW
Wind: NW 10 mph , 17 km/h
Temperature: 84°F , 29°C
Heat Index: 86°F , 30°C
Dew Point: 66°F , 19°C
Humidity: 55%
Barometer: 29.87 inHg , 1011.5 hPa
Clouds: Mostly cloudy
Visibility: 10 miles , 16 km
Cloud details: Few Clouds 4000 ft
Mostly cloudy 25000 ft
2019/08/22 14:51 KLGA 221451Z 32009KT 10SM FEW040 BKN250 29/19 A2987 RMK AO2 SLP115 T02890194 51004
 
KSNC - Chester, Connecticut, USA
Distance from station: NE 47mi, 76km
Updated: Thu, 08/22/2019 11:15 am EDT
Clear
Clear
 Wind from varies
Wind: varies 7 mph , 11 km/h
Temperature: 86°F , 30°C
Heat Index: 95°F , 35°C
Dew Point: 75°F , 24°C
Humidity: 70%
Barometer: 29.87 inHg , 1011.5 hPa
Clouds: Clear
Visibility: 9 miles , 14 km
2019/08/22 15:15 KSNC 221515Z AUTO VRB06KT 9SM CLR 30/24 A2987 RMK AO2
KMMK - Meriden, Connecticut, USA
Distance from station: NNE 48mi, 77km
Updated: Thu, 08/22/2019 10:53 am EDT
Few Clouds
Few Clouds
 Wind from calm
Wind: Calm
Temperature: 82°F , 28°C
Heat Index: 86°F , 30°C
Dew Point: 70°F , 21°C
Humidity: 66%
Barometer: 29.87 inHg , 1011.5 hPa
Clouds: Few Clouds
Visibility: 10 miles , 16 km
Cloud details: Few Clouds 2200 ft
2019/08/22 14:53 KMMK 221453Z AUTO 00000KT 10SM FEW022 28/21 A2987 RMK AO2 SLP112 T02780211 53004
 
KNYC - Nyc/Central Park, New York, USA
Distance from station: W 48mi, 77km
Updated: Thu, 08/22/2019 10:51 am EDT
Clear
Clear
 Wind from varies
Wind: varies 5 mph , 7 km/h
Temperature: 82°F , 28°C
Heat Index: 85°F , 29°C
Dew Point: 68°F , 20°C
Humidity: 62%
Barometer: 29.91 inHg , 1012.9 hPa
Clouds: Clear
Visibility: 10 miles , 16 km
2019/08/22 14:51 KNYC 221451Z AUTO VRB04KT 10SM CLR 28/20 A2991 RMK AO2 SLP119 T02830200 51004 $